ADDS METAR Data INFO
IDs: Format: Raw Decoded Include TAF

Data at: 0117 UTC 20 Feb 2018

KGWW 200055Z AUTO 00000KT 7SM OVC008 11/11 A3042 RMK AO2 T01140110
KGWW 200035Z AUTO 00000KT 7SM OVC008 11/11 A3041 RMK AO2 T01130110
KGWW 200015Z AUTO 00000KT 7SM OVC008 12/11 A3041 RMK AO2 T01150110
KGWW 192355Z AUTO 00000KT 7SM SCT008 BKN055 OVC095 12/11 A3041 RMK AO2 T01150110 10128 20096
KGWW 192335Z AUTO 00000KT 7SM BKN055 OVC070 12/11 A3040 RMK AO2 T01150110
KGWW 192315Z AUTO 00000KT 7SM SCT055 BKN065 OVC080 12/11 A3039 RMK AO2 T01150110
KGWW 192255Z AUTO 03003KT 5SM BR SCT035 SCT049 OVC060 12/11 A3039 RMK AO2 T01150110
KGWW 192235Z AUTO 04004KT 7SM SCT033 SCT040 OVC050 12/11 A3039 RMK AO2 T01170110
KGWW 192215Z AUTO 00000KT 7SM SCT046 OVC060 12/11 A3039 RMK AO2 T01170108
KGWW 192155Z AUTO 00000KT 7SM OVC060 12/11 A3040 RMK AO2 T01170107
KGWW 192135Z AUTO 00000KT 5SM BR OVC070 12/11 A3039 RMK AO2 T01160106
KGWW 192115Z AUTO 00000KT 5SM BR OVC070 12/11 A3038 RMK AO2 T01190108
KGWW 192055Z AUTO 00000KT 7SM OVC070 12/11 A3038 RMK AO2 T01200107
KGWW 192035Z AUTO 34003KT 5SM BR OVC080 12/11 A3038 RMK AO2 T01200108
KGWW 192015Z AUTO 34003KT 5SM BR OVC080 12/11 A3038 RMK AO2 T01220108
KGWW 191955Z AUTO 33003KT 5SM BR OVC080 12/11 A3038 RMK AO2 T01240107
KGWW 191935Z AUTO 34004KT 5SM BR BKN080 12/11 A3039 RMK AO2 T01240108
KGWW 191915Z AUTO 00000KT 5SM BR SCT008 13/11 A3039 RMK AO2 T01280107
KGWW 191855Z AUTO 00000KT 5SM BR OVC008 12/10 A3040 RMK AO2 T01180104
KGWW 191835Z AUTO 35003KT 5SM BR OVC006 12/10 A3041 RMK AO2 T01180104
KGWW 191815Z AUTO 00000KT 4SM BR OVC006 11/10 A3042 RMK AO2 T01050098
KGWW 191755Z AUTO 00000KT 4SM BR OVC004 10/09 A3042 RMK AO2 T00950092 10097 20056
KGWW 191735Z AUTO 00000KT 4SM BR OVC004 10/09 A3043 RMK AO2 T00950094
KGWW 191715Z AUTO 00000KT 3SM BR OVC004 09/09 A3044 RMK AO2 T00870087
KGWW 191655Z AUTO 01003KT 3SM BR OVC004 09/09 A3045 RMK AO2 T00860086
KGWW 191635Z AUTO 02003KT 4SM BR OVC004 08/08 A3046 RMK AO2 T00810081
KGWW 191615Z AUTO 36003KT 4SM BR OVC004 08/08 A3046 RMK AO2 T00790079
KGWW 191555Z AUTO 00000KT 5SM BR BKN004 OVC009 08/08 A3047 RMK AO2 T00750075
KGWW 191535Z AUTO 00000KT 7SM BKN004 OVC009 08/08 A3047 RMK AO2 T00750075
KGWW 191515Z AUTO 00000KT 7SM BKN004 OVC011 07/07 A3047 RMK AO2 T00720072
KGWW 191455Z AUTO 35003KT 7SM -RA BKN006 OVC011 07/07 A3047 RMK AO2 T00700070
KGWW 191435Z AUTO 00000KT 5SM -DZ BKN004 OVC013 07/07 A3047 RMK AO2 T00680068
KGWW 191415Z AUTO 36004KT 7SM BKN004 OVC013 07/07 A3047 RMK AO2 T00670067
KGWW 191355Z AUTO 00000KT 10SM SCT004 OVC013 07/07 A3047 RMK AO2 T00650065
KGWW 191335Z AUTO 00000KT 10SM SCT004 OVC015 06/06 A3046 RMK AO2 T00640064
KGWW 191315Z AUTO 04003KT 7SM -DZ SCT004 OVC015 06/06 A3046 RMK AO2 T00620062
KGWW 191255Z AUTO 05003KT 7SM -RA OVC015 06/06 A3046 RMK AO2 T00610061
KGWW 191235Z AUTO 00000KT 4SM RA OVC015 06/06 A3045 RMK AO2 T00580058
KGWW 191215Z AUTO 00000KT 3SM DZ SCT005 OVC017 06/06 A3044 RMK AO2 T00580058
KGWW 191155Z AUTO 00000KT 4SM -RA SCT005 OVC017 06/06 A3044 RMK AO2 T00560056 10075 20052
KGWW 191135Z AUTO 00000KT 7SM SCT005 OVC017 06/06 A3044 RMK AO2 T00550055
KGWW 191115Z AUTO 07003KT 5SM BR SCT005 OVC019 06/06 A3044 RMK AO2 T00550055
KGWW 191055Z AUTO 06003KT 5SM -DZ SCT005 SCT015 OVC021 05/05 A3044 RMK AO2 T00530053
KGWW 191035Z AUTO 05004KT 5SM RA SCT005 SCT016 OVC021 05/05 A3044 RMK AO2 T00530053
KGWW 191015Z AUTO 04004KT 5SM RA OVC019 06/05 A3044 RMK AO2 T00550053
KGWW 190955Z AUTO 05003KT 7SM RA OVC019 06/05 A3044 RMK AO2 T00550051
KGWW 190935Z AUTO 02004KT 7SM DZ OVC019 06/05 A3044 RMK AO2 T00570048
KGWW 190915Z AUTO 03005KT 7SM RA OVC017 06/04 A3044 RMK AO2 T00620044
KGWW 190855Z AUTO 03006KT 10SM -DZ BKN013 OVC022 07/04 A3043 RMK AO2 T00670037
KGWW 190835Z AUTO 05004KT 7SM DZ BKN013 OVC022 07/03 A3042 RMK AO2 T00690033
KGWW 190815Z AUTO 05003KT 10SM OVC015 08/03 A3042 RMK AO2 T00750027
KGWW 190755Z AUTO 06004KT 10SM OVC017 07/03 A3043 RMK AO2 T00740026
KGWW 190735Z AUTO 07004KT 10SM BKN019 OVC026 08/02 A3043 RMK AO2 T00750023
KGWW 190715Z AUTO 08005KT 10SM SCT019 OVC026 08/02 A3044 RMK AO2 T00750020
KGWW 190655Z AUTO 09003KT 10SM OVC028 08/02 A3044 RMK AO2 T00750015
KGWW 190635Z AUTO 08003KT 10SM OVC032 08/01 A3045 RMK AO2 T00750011
KGWW 190615Z AUTO 07006KT 10SM OVC034 08/01 A3046 RMK AO2 T00750007
KGWW 190555Z AUTO 08006KT 10SM OVC038 08/00 A3046 RMK AO2 T00750004 10115 20075 401710045
KGWW 190535Z AUTO 07006KT 10SM OVC040 08/01 A3047 RMK AO2 T00770007
KGWW 190515Z AUTO 08004KT 10SM OVC042 08/01 A3047 RMK AO2 T00780005
KGWW 190455Z AUTO 08006KT 10SM OVC042 08/01 A3047 RMK AO2 T00780008
KGWW 190435Z AUTO 08004KT 10SM OVC042 08/02 A3047 RMK AO2 T00770018
KGWW 190415Z AUTO 10004KT 10SM OVC046 08/03 A3047 RMK AO2 T00770025
KGWW 190355Z AUTO 09003KT 10SM SCT042 OVC048 08/03 A3047 RMK AO2 T00760030
KGWW 190335Z AUTO 08006KT 10SM OVC044 08/03 A3046 RMK AO2 T00760031
KGWW 190315Z AUTO 09006KT 10SM BKN044 OVC070 08/03 A3046 RMK AO2 T00780031
KGWW 190255Z AUTO 09004KT 10SM BKN070 08/03 A3046 RMK AO2 T00760032
KGWW 190235Z AUTO 09005KT 10SM CLR 08/04 A3046 RMK AO2 T00760037
KGWW 190215Z AUTO 09003KT 10SM CLR 08/04 A3045 RMK AO2 T00780040
KGWW 190155Z AUTO 10003KT 10SM CLR 08/04 A3045 RMK AO2 T00830040
KGWW 190135Z AUTO 11003KT 10SM CLR 09/04 A3045 RMK AO2 T00880040
KGWW 190115Z AUTO 10006KT 080V140 10SM CLR 10/04 A3044 RMK AO2 T00950040
KGWW 190055Z AUTO 11004KT 10SM CLR 10/04 A3042 RMK AO2 T00970043
KGWW 190035Z AUTO 11006KT 10SM CLR 10/05 A3041 RMK AO2 T01020045
KGWW 190015Z AUTO 11005KT 10SM CLR 11/05 A3041 RMK AO2 T01090051
KGWW 182355Z AUTO 10004KT 10SM CLR 12/05 A3040 RMK AO2 T01150054 10171 20115
KGWW 182335Z AUTO 09004KT 10SM CLR 12/05 A3039 RMK AO2 T01200053
KGWW 182315Z AUTO 09005KT 10SM CLR 12/05 A3038 RMK AO2 T01230051
KGWW 182255Z AUTO 09004KT 10SM CLR 13/05 A3037 RMK AO2 T01310051
KGWW 182235Z AUTO 09007KT 10SM CLR 14/05 A3037 RMK AO2 T01400054
KGWW 182215Z AUTO 10003KT 10SM CLR 15/05 A3036 RMK AO2 T01500052
KGWW 182155Z AUTO 09007KT 10SM CLR 16/05 A3036 RMK AO2 T01550048
KGWW 182135Z AUTO 08006KT 10SM CLR 16/05 A3035 RMK AO2 T01600052
KGWW 182115Z AUTO 11007KT 060V150 10SM CLR 17/05 A3035 RMK AO2 T01660054
KGWW 182055Z AUTO 10006KT 10SM CLR 17/05 A3034 RMK AO2 T01670050
KGWW 182035Z AUTO 12004KT 10SM CLR 17/04 A3034 RMK AO2 T01680036
KGWW 182015Z AUTO 09005KT 10SM CLR 17/03 A3034 RMK AO2 T01710030
KGWW 181955Z AUTO 03004KT 10SM CLR 16/04 A3033 RMK AO2 T01630035
KGWW 181935Z AUTO 06007KT 10SM CLR 16/03 A3033 RMK AO2 T01630032
KGWW 181915Z AUTO 05004KT 10SM CLR 16/01 A3034 RMK AO2 T01610013
KGWW 181855Z AUTO 04009KT 10SM CLR 16/04 A3034 RMK AO2 T01580036
KGWW 181835Z AUTO 02005KT 10SM CLR 16/03 A3034 RMK AO2 T01600033
KGWW 181815Z AUTO 04008KT 10SM CLR 16/03 A3035 RMK AO2 T01550034
KGWW 181755Z AUTO 05008G15KT 10SM CLR 15/04 A3035 RMK AO2 T01540043 10155 20045
KGWW 181735Z AUTO 01006G14KT 10SM CLR 15/04 A3036 RMK AO2 T01480038
KGWW 181715Z AUTO 06008G15KT 10SM CLR 15/05 A3037 RMK AO2 T01470045
KGWW 181655Z AUTO 02009G14KT 10SM CLR 14/04 A3037 RMK AO2 T01420037
KGWW 181635Z AUTO 02007KT 10SM CLR 14/05 A3037 RMK AO2 T01380046
KGWW 181615Z AUTO 03011G16KT 7SM CLR 14/05 A3037 RMK AO2 T01350049
KGWW 181555Z AUTO 01008KT 10SM CLR 13/05 A3037 RMK AO2 T01290054
KGWW 181535Z AUTO 02009KT 10SM CLR 12/06 A3036 RMK AO2 T01210064
KGWW 181515Z AUTO 35006KT 10SM CLR 12/08 A3035 RMK AO2 T01160075
KGWW 181455Z AUTO 01009KT 10SM CLR 11/08 A3034 RMK AO2 T01100075
KGWW 181435Z AUTO 35005KT 10SM CLR 10/08 A3033 RMK AO2 T01000077
KGWW 181415Z AUTO 02005KT 10SM CLR 09/08 A3032 RMK AO2 T00920081
KGWW 181355Z AUTO 00000KT 10SM CLR 08/08 A3031 RMK AO2 T00810080
KGWW 181335Z AUTO 34003KT 10SM CLR 08/08 A3030 RMK AO2 T00750075